• Join FlightAware (Why Join?)
  • Login
  • US Flag GB Flag 
17:05 EST


 

Airport Tracker/Info


-or-


 

Live Flight TrackerFlight Track Log ✈ FLG3735 ✈ 23-Apr-2013 ✈ KDTW - KALB

Flight Track Log - Related Links

Times and Time Zones

All times are in EDT time to prevent confusion due to time zone crossing. See the FLG3735 flight status page for this flight to view local times or setup timezone preferences in your user account.

Time Position Orientation Groundspeed Altitude Reporting Facility
EDT Latitude Longitude Course Direction KTS MPH feet Rate Location/Type
21:46 42.2036 -83.3556 90° East 155 178 1,200  Level Cleveland Center
21:47 42.1622 -83.3453 170° South 181 208 3,600 2,280 Climbing Cleveland Center
21:48 42.1356 -83.3272 153° Southeast 215 247 4,900 2,280 Climbing Cleveland Center
21:49 42.2898 -82.8844 75° East  Level FlightAware Approximate
21:49 42.1442 -83.2242 84° East 316 364 7,400  Level Cleveland Center
21:50 42.3188 -82.7288 82° East  Level FlightAware Approximate
21:50 42.1806 -83.0994 68° East 326 375 10,600  Level Cleveland Center
21:51 42.3366 -82.5702 71° East  Level FlightAware Approximate
21:51 42.1872 -83.0689 74° East 326 375 10,900  Level Cleveland Center
21:51 42.2183 -82.9775 65° Northeast 380 437 12,400 1,980 Climbing Cleveland Center
21:52 42.3667 -82.4193 90° East  Level FlightAware Approximate
21:52 42.2256 -82.9358 77° East 370 426 12,900  Level Cleveland Center
21:53 42.2658 -82.8025 68° East 405 466 13,000 300 Climbing Cleveland Center
21:54 42.3058 -82.6608 69° East 405 466 13,500 840 Climbing Cleveland Center
21:55 42.3503 -82.5078 69° East 416 479 14,700 1,200 Climbing Cleveland Center
21:56 42.3614 -82.3394 85° East 435 501 15,900 1,140 Climbing Cleveland Center
21:57 42.3556 -82.1678 93° East 435 501 17,000 1,080 Climbing Cleveland Center
21:58 42.3475 -81.9767 93° East 447 514 18,100 900 Climbing Cleveland Center
21:59 42.3411 -81.8192 93° East 467 537 18,800 720 Climbing Cleveland Center
22:00 42.3325 -81.6364 94° East 478 550 19,600 720 Climbing Cleveland Center
22:01 42.3236 -81.4564 94° East 486 559 20,300 900 Climbing Cleveland Center
22:02 42.3164 -81.2739 93° East 486 559 21,400 1,080 Climbing Cleveland Center
22:03 42.3069 -81.0942 94° East 479 551 22,500 1,020 Climbing Cleveland Center
22:04 42.2950 -80.8947 95° East 479 551 23,500 960 Climbing Cleveland Center
22:05 42.2872 -80.7178 93° East 479 551 24,500 1,020 Climbing Cleveland Center
22:06 42.2767 -80.5356 94° East 479 551 25,600 1,020 Climbing Cleveland Center
22:07 42.2661 -80.3531 94° East 479 551 26,600 960 Climbing Cleveland Center
22:08 42.2553 -80.1792 95° East 479 551 27,600 960 Climbing Cleveland Center
22:09 42.2461 -79.9997 94° East 479 551 28,600 660 Climbing Cleveland Center
22:10 42.2347 -79.8203 95° East 479 551 29,000 180 Climbing Cleveland Center
22:11 42.2228 -79.6328 95° East 488 562 29,000  Level Cleveland Center
22:12 42.2108 -79.4422 95° East 499 574 29,000  Level Cleveland Center
22:13 42.1983 -79.2547 95° East 504 580 29,000  Level Cleveland Center
22:14 42.1939 -79.0669 92° East 504 580 29,000  Level Cleveland Center
22:15 42.2206 -78.8842 79° East 489 563 29,000  Level Cleveland Center
22:16 42.2428 -78.6983 81° East 494 568 29,000  Level Cleveland Center
22:17 42.2667 -78.5125 80° East 499 574 29,000  Level Cleveland Center
22:18 42.2881 -78.3322 81° East 499 574 29,000  Level Cleveland Center
22:19 42.3114 -78.1431 80° East 499 574 29,000  Level Cleveland Center
22:20 42.3325 -77.9597 81° East 499 574 29,000  Level Cleveland Center
22:21 42.3553 -77.7789 80° East 499 574 29,000  Level Cleveland Center
22:24 42.4322 -77.0908 81° East 496 571 29,000  Level Boston Center
22:25 42.4544 -76.9039 81° East 496 571 29,000  Level Boston Center
22:26 42.4739 -76.7222 82° East 503 579 29,000  Level Boston Center
22:27 42.4933 -76.5375 82° East 498 573 29,000  Level Boston Center
22:28 42.5122 -76.3556 82° East 498 573 29,000 -1,020 Level Boston Center
22:29 42.5336 -76.1514 82° East 498 573 27,000 -1,980 Descending Boston Center
22:30 42.5539 -75.9719 81° East 492 566 25,100 -1,920 Descending Boston Center
22:31 42.5675 -75.7981 84° East 487 560 23,300 -1,800 Descending Boston Center
22:32 42.5850 -75.6269 82° East 468 539 21,500 -1,740 Descending Boston Center
22:33 42.6019 -75.4642 82° East 455 524 19,900 -1,620 Descending Boston Center
22:34 42.6164 -75.3039 83° East 440 506 18,400 -1,440 Descending Boston Center
22:35 42.6311 -75.1381 83° East 440 506 17,100 -1,500 Descending Boston Center
22:36 42.6447 -74.9919 83° East 440 506 15,500 -1,620 Descending Boston Center
22:37 42.6506 -74.9244 83° East 440 506 14,900 -1,740 Descending Boston Center
22:37 42.6561 -74.8511 84° East 430 495 14,200 -1,560 Descending Boston Center
22:37 42.6586 -74.8342 79° East 435 501 13,900 -1,680 Descending Boston Center
22:38 42.6697 -74.6992 84° East 405 466 12,500 -1,680 Descending Boston Center
22:39 42.6850 -74.5500 82° East 394 453 11,000 -780 Descending Boston Center
22:40 42.6961 -74.4064 84° East 378 435 11,000 -420 Level Boston Center
22:41 42.6939 -74.2875 91° East 292 336 10,200 -1,080 Descending Boston Center
22:42 42.6872 -74.1800 95° East 282 325 8,900 -1,620 Descending Boston Center
22:43 42.6719 -74.0836 102° East 280 322 7,200 -1,980 Descending Boston Center
22:43 42.6683 -74.0553 100° East 278 320 6,600 -1,980 Descending Boston Center
22:44 42.6547 -73.9842 105° East 264 304 5,200 -1,920 Descending Boston Center
22:44 42.6528 -73.9561 95° East 273 314 4,700 -2,100 Descending Boston Center
22:45 42.6433 -73.8936 102° East 246 283 3,100 -2,220 Descending Boston Center
22:45 42.6394 -73.8683 102° East 255 293 2,500 -2,280 Descending Boston Center